createdAt,value
2023-01-01T05:02:31.894Z,96638.13
2023-01-01T05:12:32.173Z,96641.94
2023-01-01T05:22:31.436Z,96651.97
2023-01-01T05:32:29.367Z,96654.69
2023-01-01T05:42:28.577Z,96657.38
2023-01-01T05:52:27.064Z,96657.38
2023-01-01T06:02:26.505Z,96663.88
2023-01-01T06:12:26.852Z,96678.22
2023-01-01T06:22:26.151Z,96682.84
2023-01-01T06:32:24.089Z,96685.53
2023-01-01T06:42:23.564Z,96692.06
2023-01-01T06:52:25.601Z,96698.28
2023-01-01T07:02:24.917Z,96691.25
2023-01-01T07:12:22.931Z,96694.53
2023-01-01T07:22:22.204Z,96692.34
2023-01-01T07:32:20.092Z,96698.56
2023-01-01T07:42:19.552Z,96716.28
2023-01-01T07:52:17.611Z,96731.88
2023-01-01T08:02:16.894Z,96768.13
2023-01-01T08:12:14.834Z,96777.75
2023-01-01T08:22:16.482Z,96775.78
2023-01-01T08:32:15.196Z,96783.88
2023-01-01T08:42:14.563Z,96794.31
2023-01-01T08:52:12.475Z,96796.84
2023-01-01T09:02:12.973Z,96799.53
2023-01-01T09:12:16.095Z,96796.19
2023-01-01T09:22:15.343Z,96791.09
2023-01-01T09:32:13.223Z,96798.41
2023-01-01T09:42:28.106Z,96803.81
2023-01-01T09:52:36.325Z,96802.91
2023-01-01T10:02:53.477Z,96811.75
2023-01-01T10:12:57.474Z,96803.84
2023-01-01T10:23:04.317Z,96807.66
2023-01-01T10:33:02.588Z,96804.38
2023-01-01T10:43:03.944Z,96796.69
2023-01-01T10:53:01.849Z,96795.31
2023-01-01T11:03:19.726Z,96787.19
2023-01-01T11:13:20.382Z,96777.81
2023-01-01T11:23:28.154Z,96792.22
2023-01-01T11:33:27.596Z,96765.03
2023-01-01T11:43:29.062Z,96742.91
2023-01-01T11:53:31.076Z,96724.78
2023-01-01T12:03:36.448Z,96710.16
2023-01-01T12:13:39.554Z,96712.09
2023-01-01T12:23:38.979Z,96710.25
2023-01-01T12:33:58.641Z,96687.53
2023-01-01T12:44:05.131Z,96683.06
2023-01-01T12:54:24.991Z,96688.28
2023-01-01T13:04:24.468Z,96683.44
2023-01-01T13:14:22.460Z,96665.84
2023-01-01T13:24:23.663Z,96668.84
2023-01-01T13:34:40.249Z,96665.63
2023-01-01T13:44:39.626Z,96650.47
2023-01-01T13:55:16.175Z,96633.41
2023-01-01T14:05:19.728Z,96632.09
2023-01-01T14:15:24.693Z,96640.50
2023-01-01T14:25:29.198Z,96656.25
2023-01-01T14:35:28.195Z,96650.00
2023-01-01T14:45:27.812Z,96647.63
2023-01-01T14:55:29.008Z,96646.31
2023-01-01T15:05:35.699Z,96639.25
2023-01-01T15:15:40.439Z,96652.31
2023-01-01T15:25:43.662Z,96634.69
2023-01-01T15:35:41.620Z,96645.84
2023-01-01T15:45:42.593Z,96644.22
2023-01-01T15:55:45.766Z,96639.91
2023-01-01T16:05:50.858Z,96632.06
2023-01-01T16:15:52.492Z,96629.66
2023-01-01T16:25:54.005Z,96617.22
2023-01-01T16:35:51.939Z,96617.50
2023-01-01T16:45:53.778Z,96616.69
2023-01-01T16:55:53.107Z,96614.78
2023-01-01T17:05:52.345Z,96594.22
2023-01-01T17:15:56.558Z,96587.69
2023-01-01T17:25:55.817Z,96585.66
2023-01-01T17:35:55.869Z,96598.03
2023-01-01T17:45:55.165Z,96589.00
2023-01-01T17:55:56.269Z,96585.25
2023-01-01T18:05:58.096Z,96581.66
2023-01-01T18:16:00.338Z,96583.84
2023-01-01T18:26:02.721Z,96577.53
2023-01-01T18:36:04.029Z,96589.56
2023-01-01T18:46:03.441Z,96580.41
2023-01-01T18:56:10.949Z,96577.19
2023-01-01T19:06:24.761Z,96580.22
2023-01-01T19:16:28.950Z,96550.16
2023-01-01T19:26:34.515Z,96543.63
2023-01-01T19:36:34.698Z,96547.88
2023-01-01T19:46:34.022Z,96541.06
2023-01-01T19:56:31.936Z,96536.13
2023-01-01T20:06:31.509Z,96520.69
2023-01-01T20:16:29.506Z,96513.97
2023-01-01T20:26:31.203Z,96517.47
2023-01-01T20:36:46.592Z,96511.84
2023-01-01T20:46:48.121Z,96524.66
2023-01-01T20:56:46.581Z,96538.81
2023-01-01T21:06:48.726Z,96529.56
2023-01-01T21:16:47.112Z,96527.38
2023-01-01T21:26:46.377Z,96541.44
2023-01-01T21:36:44.297Z,96543.03
2023-01-01T21:46:54.225Z,96541.13
2023-01-01T21:56:58.026Z,96536.84
